Airfield :
LOGIN :

Register | Disclaimer

   EN    FR    IT 

 










Legend :    VFR   Marginal VFR   IFR   Intensive IFR   Very Intensive IFR
Visi :
Ceiling :
>= 8 km
>= 3000ft
5 to 8 km
1000 to 3000 ft
1500m to 5 km
500 to 1000 ft
800 to 1500m
200 to 500 ft
< 800m
< 200 ft
Symbols :   Thunderstorms  Fog  Heavy snow  Heavy precipitations  Wind > 20 kt
SIGMETs :     Misc.  Thunderstorms  Icing  Turbulence  Mountain Waves  Volcanic Ashes






- Airport Elevation : 461 ft
- IATA code : WIE


ETOU - Wiesbaden Army

CURRENT METAR :
  • 150356Z AUTO 05006KT 9999 CLR 14/12 A2975 RMK AO2 SLP073 T01380118 $

EXPIRED METARs :
  • 150256Z AUTO 00000KT 9999 CLR 13/11 A2978 RMK AO2 SLP083 T01330113 57008 $
  • 150156Z AUTO 08004KT 9999 CLR 12/10 A2979 RMK AO2 SLP087 T01220103 $

TAF TAF ETOU
Valid from the 15 at 03:00 until the 16 at 09:00 UTC


1503/1609 10006KT 9999 BKN050 QNH2966INS
BECMG 1515/1516 25009KT 9000 -SHRA OVC025 QNH2965INS
TEMPO 1516/1519 8000 SHRA
BECMG 1600/1601 23009KT 9999 NSW OVC020 QNH2989INS TX22/1513Z TN10/1606Z



MET'MAP, your aeronautical weather chart ! - Copyright ORBIFLY December 2007 - Disclaimer

ORBIFLY MET'MAP TEAM :

Programming & Development : Alexandra Zaïnal
Concept & Development : Baudouin d'Aumeries
Co-Development & Prog : Marc-Olivier Méhu
Technical & hardware support : Manuel Goepfert

Contact : metmap@orbifly.com




SOURCES & CREDITS :

   NOAA